Time;durP1;ratioP1;P1;durP2;ratioP2;P2;SDS_P1;SDS_P2;PMS_P1;PMS_P2;Temp;Humidity;BMP_temperature;BMP_pressure;BME280_temperature;BME280_humidity;BME280_pressure;Samples;Min_cycle;Max_cycle;Signal;HPM_P1;HPM_P2
2022/06/14 00:03:13;;;;;;;2.17;1.83;;;13.70;1.00;;;;;;5101498;28;20431;-67
2022/06/14 00:05:41;;;;;;;3.40;1.77;;;13.50;1.00;;;;;;5110914;27;20455;-67
2022/06/14 00:08:08;;;;;;;2.60;2.13;;;13.60;1.00;;;;;;5102136;28;20554;-68
2022/06/14 00:10:35;;;;;;;2.30;2.03;;;13.50;1.00;;;;;;5111280;28;20450;-68
2022/06/14 00:13:03;;;;;;;4.43;2.13;;;13.50;1.00;;;;;;5111291;28;20458;-67
2022/06/14 00:15:30;;;;;;;3.57;2.70;;;13.50;1.00;;;;;;5112055;28;20870;-67
2022/06/14 00:17:57;;;;;;;4.93;2.40;;;13.40;1.00;;;;;;5110666;28;20532;-67
2022/06/14 00:20:25;;;;;;;3.13;2.20;;;13.50;1.00;;;;;;5111368;28;20447;-67
2022/06/14 00:22:52;;;;;;;2.23;1.83;;;13.60;1.00;;;;;;5111031;28;20450;-68
2022/06/14 00:25:24;;;;;;;2.97;2.40;;;13.80;99.90;;;;;;5111478;28;20459;-67
2022/06/14 00:27:52;;;;;;;3.00;2.40;;;13.60;99.90;;;;;;5110473;28;20598;-68
2022/06/14 00:30:20;;;;;;;3.40;2.27;;;13.60;1.00;;;;;;5111557;28;20448;-67
2022/06/14 00:32:47;;;;;;;3.20;2.57;;;13.60;1.00;;;;;;5111045;28;20942;-69
2022/06/14 00:35:14;;;;;;;4.30;2.33;;;13.60;1.00;;;;;;5111598;28;20813;-67
2022/06/14 00:37:43;;;;;;;1.93;1.73;;;13.50;1.00;;;;;;5110326;28;20454;-67
2022/06/14 00:40:12;;;;;;;2.63;2.23;;;13.30;1.00;;;;;;5110864;28;20456;-67
2022/06/14 00:42:39;;;;;;;2.67;2.13;;;13.20;1.00;;;;;;5111122;28;20530;-68
2022/06/14 00:45:09;;;;;;;5.50;1.80;;;13.20;64.20;;;;;;5110349;28;20463;-67
2022/06/14 00:47:41;;;;;;;3.57;2.37;;;13.40;1.00;;;;;;5110235;28;20477;-67
2022/06/14 00:50:16;;;;;;;7.70;2.57;;;13.20;42.30;;;;;;5097750;28;20445;-67
2022/06/14 00:52:47;;;;;;;3.97;1.87;;;13.00;99.90;;;;;;5110913;28;20455;-67
2022/06/14 00:55:19;;;;;;;2.60;2.10;;;13.20;58.20;;;;;;5111217;28;20443;-67
2022/06/14 00:57:50;;;;;;;3.90;1.90;;;13.10;57.20;;;;;;5107116;28;20808;-69
2022/06/14 01:00:21;;;;;;;3.50;2.33;;;13.10;99.90;;;;;;5111060;28;20461;-67
2022/06/14 01:02:52;;;;;;;2.97;2.00;;;13.10;99.90;;;;;;5097442;28;20442;-67
2022/06/14 01:05:22;;;;;;;4.30;2.80;;;13.20;99.90;;;;;;5111280;28;20817;-67
2022/06/14 01:07:55;;;;;;;2.13;1.93;;;13.20;5.40;;;;;;5109989;28;20492;-66
2022/06/14 01:10:28;;;;;;;2.70;2.10;;;13.00;99.90;;;;;;5106655;28;20933;-67
2022/06/14 01:13:00;;;;;;;3.20;1.83;;;13.10;99.90;;;;;;5109972;28;20941;-67
2022/06/14 01:15:30;;;;;;;3.67;2.63;;;13.00;99.90;;;;;;5106493;28;20835;-67
2022/06/14 01:18:02;;;;;;;3.03;2.20;;;12.90;99.90;;;;;;5110445;28;20479;-66
2022/06/14 01:20:30;;;;;;;2.37;2.03;;;12.80;99.90;;;;;;5110825;28;20445;-66
2022/06/14 01:22:59;;;;;;;2.83;2.50;;;12.70;99.90;;;;;;5110354;28;20531;-68
2022/06/14 01:25:31;;;;;;;4.20;2.50;;;12.60;99.90;;;;;;5110902;28;20457;-66
2022/06/14 01:28:00;;;;;;;3.33;1.57;;;12.70;99.90;;;;;;5109800;28;20498;-68
2022/06/14 01:30:31;;;;;;;2.67;1.70;;;12.80;99.90;;;;;;5110510;28;20444;-67
2022/06/14 01:33:01;;;;;;;4.27;2.90;;;12.70;99.90;;;;;;5110303;28;20448;-67
2022/06/14 01:35:32;;;;;;;5.70;2.73;;;12.90;99.90;;;;;;5110651;28;20490;-66
2022/06/14 01:38:03;;;;;;;3.63;2.40;;;12.70;99.90;;;;;;5109615;28;20456;-67
2022/06/14 01:40:36;;;;;;;3.00;2.13;;;12.50;99.90;;;;;;5112256;28;20453;-66
2022/06/14 01:43:23;;;;;;;6.07;2.50;;;12.60;99.90;;;;;;5106910;28;20456;-68
2022/06/14 01:46:00;;;;;;;3.67;2.27;;;12.50;99.90;;;;;;5110897;28;20911;-67
2022/06/14 01:48:31;;;;;;;4.13;2.63;;;12.40;99.90;;;;;;5106840;28;20566;-68
2022/06/14 01:53:59;;;;;;;3.80;2.83;;;12.30;99.90;;;;;;5092482;28;20413;-68
2022/06/14 01:56:40;;;;;;;3.43;2.80;;;12.30;99.90;;;;;;5109993;28;20452;-67
2022/06/14 01:59:16;;;;;;;3.43;3.10;;;12.30;99.90;;;;;;5109470;28;20501;-67
2022/06/14 02:01:52;;;;;;;4.23;2.40;;;12.50;99.90;;;;;;5110645;28;20451;-66
2022/06/14 02:04:39;;;;;;;3.37;2.90;;;12.60;99.90;;;;;;5111932;28;20460;-69
2022/06/14 02:07:21;;;;;;;7.70;3.67;;;12.50;99.90;;;;;;5106045;28;20914;-66
2022/06/14 02:09:57;;;;;;;2.93;1.80;;;12.40;99.90;;;;;;5112249;28;20758;-66
2022/06/14 02:12:32;;;;;;;2.93;2.63;;;12.30;99.90;;;;;;5113952;28;20444;-66
2022/06/14 02:15:03;;;;;;;3.17;1.80;;;12.30;99.90;;;;;;5113573;28;20443;-67
2022/06/14 02:17:35;;;;;;;3.93;1.83;;;12.20;99.90;;;;;;5113944;28;20444;-68
2022/06/14 02:20:06;;;;;;;3.13;2.43;;;12.30;99.90;;;;;;5113434;28;20527;-67
2022/06/14 02:22:37;;;;;;;3.90;2.43;;;12.40;99.90;;;;;;5111420;28;20546;-68
2022/06/14 02:25:10;;;;;;;5.33;2.60;;;12.30;99.90;;;;;;5113491;28;20842;-68
2022/06/14 02:27:43;;;;;;;2.73;2.17;;;12.40;99.90;;;;;;5113210;28;20498;-67
2022/06/14 02:30:14;;;;;;;2.80;2.40;;;12.50;99.90;;;;;;5113082;28;20939;-69
2022/06/14 02:32:45;;;;;;;3.20;1.97;;;12.50;99.90;;;;;;5113842;28;20452;-68
2022/06/14 02:35:16;;;;;;;2.50;1.90;;;12.30;99.90;;;;;;5113695;28;20536;-69
2022/06/14 02:37:48;;;;;;;6.20;2.53;;;12.20;99.90;;;;;;5108514;28;20460;-69
2022/06/14 02:40:24;;;;;;;3.00;2.43;;;12.40;99.90;;;;;;5113031;28;20471;-69
2022/06/14 02:42:57;;;;;;;3.10;1.93;;;12.20;99.90;;;;;;5112948;28;20448;-69
2022/06/14 02:45:28;;;;;;;5.10;2.27;;;12.00;99.90;;;;;;5112872;28;20443;-67
2022/06/14 02:48:02;;;;;;;2.40;2.20;;;12.00;99.90;;;;;;5112620;28;20563;-69
2022/06/14 02:50:36;;;;;;;4.30;2.57;;;12.10;99.90;;;;;;5110931;28;20461;-68
2022/06/14 02:53:09;;;;;;;4.17;3.10;;;12.00;99.90;;;;;;5111212;28;20458;-68
2022/06/14 02:55:43;;;;;;;2.50;2.30;;;12.10;99.90;;;;;;5102477;28;20456;-68
2022/06/14 02:58:14;;;;;;;2.67;1.97;;;12.40;99.90;;;;;;5112078;28;20554;-68
2022/06/14 03:00:46;;;;;;;4.43;2.30;;;12.20;99.90;;;;;;5113577;28;20447;-68
2022/06/14 03:03:18;;;;;;;4.77;2.40;;;12.00;99.90;;;;;;5113476;28;20454;-69
2022/06/14 03:05:49;;;;;;;3.63;2.60;;;11.90;99.90;;;;;;5112922;28;20450;-71
2022/06/14 03:08:21;;;;;;;4.23;2.70;;;12.00;99.90;;;;;;5107996;28;20563;-69
2022/06/14 03:10:57;;;;;;;3.23;2.10;;;12.00;99.90;;;;;;5112119;28;20454;-71
2022/06/14 03:13:30;;;;;;;3.07;2.77;;;12.20;99.90;;;;;;5108584;28;20940;-67
2022/06/14 03:16:02;;;;;;;4.30;2.83;;;12.10;99.90;;;;;;5112102;28;20440;-67
2022/06/14 03:18:34;;;;;;;2.30;2.00;;;12.10;99.90;;;;;;5100971;28;20524;-68
2022/06/14 03:21:11;;;;;;;2.90;2.53;;;12.30;99.90;;;;;;5112924;28;20446;-68
2022/06/14 03:23:47;;;;;;;3.03;2.23;;;12.20;99.90;;;;;;5112853;28;20725;-69
2022/06/14 03:26:22;;;;;;;4.00;2.97;;;12.10;99.90;;;;;;5108475;28;20461;-68
2022/06/14 03:28:54;;;;;;;4.13;2.10;;;11.90;99.90;;;;;;5102804;28;20491;-68
2022/06/14 03:31:27;;;;;;;3.87;2.60;;;11.90;99.90;;;;;;5113006;28;20456;-68
2022/06/14 03:34:03;;;;;;;3.70;3.03;;;12.10;99.90;;;;;;5112641;28;20449;-68
2022/06/14 03:36:30;;;;;;;3.67;3.07;;;12.10;99.90;;;;;;5112015;28;20449;-68
2022/06/14 03:39:00;;;;;;;3.90;2.93;;;12.10;99.90;;;;;;5103860;28;20451;-67
2022/06/14 03:41:32;;;;;;;3.93;2.40;;;11.90;99.90;;;;;;5107906;28;21639;-68
2022/06/14 03:44:03;;;;;;;3.87;2.60;;;11.80;99.90;;;;;;5111456;28;20523;-67
2022/06/14 03:46:33;;;;;;;3.00;2.27;;;11.90;99.90;;;;;;5111522;28;20500;-68
2022/06/14 03:49:04;;;;;;;3.57;2.00;;;11.90;99.90;;;;;;5108680;28;20472;-69
2022/06/14 03:51:43;;;;;;;2.87;2.30;;;12.00;99.90;;;;;;5112580;28;20455;-70
2022/06/14 03:54:23;;;;;;;2.80;2.33;;;12.10;99.90;;;;;;5112597;28;20451;-70
2022/06/14 03:57:02;;;;;;;2.57;2.37;;;11.90;99.90;;;;;;5111162;28;20462;-68
2022/06/14 03:59:44;;;;;;;5.07;2.37;;;11.90;99.90;;;;;;5111928;28;20460;-68
2022/06/14 04:02:18;;;;;;;3.70;2.17;;;12.20;99.90;;;;;;5106127;28;20448;-69
2022/06/14 04:04:53;;;;;;;2.60;2.33;;;12.10;99.90;;;;;;5099317;28;20456;-71
2022/06/14 04:07:33;;;;;;;3.63;2.90;;;12.10;99.90;;;;;;5111623;28;20451;-66
2022/06/14 04:10:06;;;;;;;5.53;2.70;;;12.00;99.90;;;;;;5111159;28;20443;-67
2022/06/14 04:12:42;;;;;;;4.50;3.20;;;12.10;99.90;;;;;;5112055;28;20455;-67
2022/06/14 04:15:27;;;;;;;8.20;2.33;;;12.00;99.90;;;;;;5111608;28;20452;-69
2022/06/14 04:18:34;;;;;;;3.73;2.33;;;12.00;99.90;;;;;;5111614;28;20968;-66
2022/06/14 04:20:56;;;;;;;3.40;2.30;;;12.00;99.90;;;;;;5110780;28;20436;-67
2022/06/14 04:23:31;;;;;;;4.17;3.73;;;11.90;99.90;;;;;;5111746;28;20443;-67
2022/06/14 04:26:05;;;;;;;8.93;2.40;;;12.00;99.90;;;;;;5110792;28;20462;-66
2022/06/14 04:28:43;;;;;;;4.47;3.13;;;12.10;99.90;;;;;;5111601;28;20486;-67
2022/06/14 04:31:14;;;;;;;5.97;2.70;;;12.10;99.90;;;;;;5111470;28;20893;-66
2022/06/14 04:33:47;;;;;;;5.03;2.90;;;12.20;99.90;;;;;;5111876;28;20447;-66
2022/06/14 04:36:19;;;;;;;6.73;2.50;;;12.30;99.90;;;;;;5113849;28;20458;-67
2022/06/14 04:38:50;;;;;;;5.90;2.97;;;12.40;99.90;;;;;;5113628;28;20444;-67
2022/06/14 04:41:23;;;;;;;2.70;2.43;;;12.50;85.40;;;;;;5111366;28;20447;-67
2022/06/14 04:43:54;;;;;;;4.53;3.33;;;12.50;99.90;;;;;;5111394;28;20480;-67
2022/06/14 04:46:28;;;;;;;5.43;3.13;;;12.60;14.10;;;;;;5111465;28;20448;-67
2022/06/14 04:48:59;;;;;;;3.00;2.57;;;12.70;56.30;;;;;;5110765;28;20487;-66
2022/06/14 04:51:31;;;;;;;4.97;2.53;;;12.80;1.00;;;;;;5110619;28;20447;-67
2022/06/14 04:54:05;;;;;;;3.40;2.60;;;12.70;1.00;;;;;;5110927;28;20450;-67
2022/06/14 04:56:36;;;;;;;3.90;2.83;;;12.60;80.60;;;;;;5111311;28;20454;-67
2022/06/14 04:59:08;;;;;;;3.50;3.20;;;12.60;99.90;;;;;;5110804;28;20476;-67
2022/06/14 05:01:40;;;;;;;3.77;2.90;;;12.70;99.90;;;;;;5110681;28;20441;-67
2022/06/14 05:04:13;;;;;;;3.77;2.20;;;12.80;99.90;;;;;;5110411;28;20812;-67
2022/06/14 05:06:43;;;;;;;3.40;2.67;;;12.90;97.10;;;;;;5110951;28;20456;-67
2022/06/14 05:09:14;;;;;;;3.80;3.37;;;12.90;65.40;;;;;;5111036;28;20497;-67
2022/06/14 05:11:45;;;;;;;8.50;3.47;;;13.00;10.90;;;;;;5110680;28;20823;-67
2022/06/14 05:14:19;;;;;;;6.50;3.47;;;13.00;1.00;;;;;;5110990;28;20458;-67
2022/06/14 05:16:52;;;;;;;4.50;3.57;;;13.20;1.00;;;;;;5110463;28;20471;-68
2022/06/14 05:19:26;;;;;;;9.40;4.17;;;13.40;1.00;;;;;;5111039;28;20480;-67
2022/06/14 05:21:59;;;;;;;3.60;2.83;;;13.50;99.90;;;;;;5110163;28;20443;-67
2022/06/14 05:24:27;;;;;;;5.37;2.80;;;13.80;1.00;;;;;;5110731;28;20516;-67
2022/06/14 05:27:10;;;;;;;4.20;2.90;;;14.00;99.90;;;;;;5109941;28;20514;-67
2022/06/14 05:29:47;;;;;;;4.70;2.60;;;14.10;63.90;;;;;;5110807;28;20493;-67
2022/06/14 05:32:24;;;;;;;5.07;3.27;;;14.40;1.00;;;;;;5110529;28;20448;-67
2022/06/14 05:35:06;;;;;;;3.17;2.80;;;14.70;1.00;;;;;;5110330;28;20458;-67
2022/06/14 05:37:42;;;;;;;3.03;2.47;;;14.80;58.90;;;;;;5110529;28;20533;-67
2022/06/14 05:40:14;;;;;;;5.43;3.00;;;14.90;1.00;;;;;;5113735;28;20451;-67
2022/06/14 05:42:45;;;;;;;3.97;2.97;;;15.10;99.90;;;;;;5115211;28;20443;-67
2022/06/14 05:45:18;;;;;;;3.93;3.00;;;15.20;1.00;;;;;;5115228;28;20458;-67
2022/06/14 05:47:49;;;;;;;3.70;3.00;;;15.30;1.00;;;;;;5114822;28;20502;-67
2022/06/14 05:50:19;;;;;;;3.60;2.83;;;15.50;1.00;;;;;;5114802;28;20453;-67
2022/06/14 05:52:50;;;;;;;2.90;2.60;;;15.60;1.00;;;;;;5114369;28;20528;-68
2022/06/14 05:55:21;;;;;;;3.97;3.57;;;15.60;99.90;;;;;;5114982;28;20453;-68
2022/06/14 05:57:54;;;;;;;6.20;3.40;;;15.70;99.90;;;;;;5114177;28;20536;-68
2022/06/14 06:00:26;;;;;;;4.20;2.83;;;15.80;99.90;;;;;;5114091;28;20933;-68
2022/06/14 06:03:01;;;;;;;7.10;3.30;;;16.00;99.90;;;;;;5114314;28;20500;-68
2022/06/14 06:05:33;;;;;;;5.50;2.90;;;16.00;99.90;;;;;;5114323;28;20445;-68
2022/06/14 06:08:08;;;;;;;6.00;3.50;;;16.10;99.90;;;;;;5113764;28;20937;-68
2022/06/14 06:10:37;;;;;;;6.40;3.17;;;16.20;99.90;;;;;;5113963;28;20454;-67
2022/06/14 06:13:10;;;;;;;4.27;3.13;;;16.30;99.90;;;;;;5113987;28;21018;-67
2022/06/14 06:15:45;;;;;;;6.13;2.80;;;16.40;99.90;;;;;;5114328;28;20458;-67
2022/06/14 06:18:16;;;;;;;4.53;3.17;;;16.50;62.60;;;;;;5114369;28;20529;-68
2022/06/14 06:20:55;;;;;;;13.50;7.63;;;16.60;27.20;;;;;;5113847;28;20449;-67
2022/06/14 06:23:29;;;;;;;10.83;6.83;;;16.80;11.90;;;;;;5114151;28;20452;-68
2022/06/14 06:25:57;;;;;;;6.07;3.83;;;16.90;1.00;;;;;;5101538;28;20903;-68
2022/06/14 06:28:27;;;;;;;8.07;3.57;;;16.90;1.00;;;;;;5113897;28;20491;-68
2022/06/14 06:30:59;;;;;;;4.60;3.67;;;16.90;1.00;;;;;;5113225;28;20479;-67
2022/06/14 06:33:30;;;;;;;4.10;3.03;;;16.90;1.00;;;;;;5113786;28;20450;-68
2022/06/14 06:36:12;;;;;;;5.73;3.13;;;17.00;1.00;;;;;;5113735;28;20436;-68
2022/06/14 06:38:53;;;;;;;9.07;3.30;;;17.20;1.00;;;;;;5113652;28;20444;-68
2022/06/14 06:44:16;;;;;;;6.00;3.80;;;17.30;1.00;;;;;;5113305;28;20530;-67
2022/06/14 06:46:48;;;;;;;5.60;3.17;;;17.40;1.00;;;;;;5114106;28;20450;-68
2022/06/14 06:49:17;;;;;;;3.80;2.90;;;17.30;1.00;;;;;;5113182;28;20483;-68
2022/06/14 06:51:49;;;;;;;6.47;3.30;;;17.40;1.00;;;;;;5113352;28;20447;-67
2022/06/14 06:54:20;;;;;;;4.77;3.77;;;;;;;;;;5113440;28;20451;-68
2022/06/14 06:56:49;;;;;;;5.60;3.53;;;;;;;;;;5113212;28;20462;-68
2022/06/14 06:59:21;;;;;;;7.13;3.17;;;;;;;;;;5113611;28;20841;-67
2022/06/14 07:01:51;;;;;;;5.50;3.53;;;;;;;;;;5112537;28;20451;-68
2022/06/14 07:04:20;;;;;;;7.30;3.90;;;;;;;;;;5113361;28;20444;-68
2022/06/14 07:06:50;;;;;;;4.80;2.80;;;;;;;;;;5103137;28;20444;-68
2022/06/14 07:09:21;;;;;;;6.20;3.23;;;;;;;;;;5113095;28;20541;-68
2022/06/14 07:11:50;;;;;;;4.97;2.70;;;;;;;;;;5112432;28;20443;-68
2022/06/14 07:14:19;;;;;;;3.77;3.10;;;;;;;;;;5113140;28;20448;-68
2022/06/14 07:16:49;;;;;;;4.20;3.10;;;;;;;;;;5112571;28;20945;-68
2022/06/14 07:19:22;;;;;;;4.97;3.20;;;;;;;;;;5113395;28;20455;-68
2022/06/14 07:21:52;;;;;;;4.90;3.30;;;;;;;;;;5111961;28;20448;-68
2022/06/14 07:24:20;;;;;;;7.70;3.50;;;;;;;;;;5111466;28;20452;-68
2022/06/14 07:26:51;;;;;;;8.57;3.20;;;17.50;1.00;;;;;;5113142;28;20518;-68
2022/06/14 07:29:23;;;;;;;6.23;3.60;;;18.70;99.90;;;;;;5113514;28;20472;-68
2022/06/14 07:31:56;;;;;;;7.90;4.00;;;18.60;99.90;;;;;;5112543;28;20802;-67
2022/06/14 07:34:27;;;;;;;3.57;2.73;;;18.70;99.90;;;;;;5113553;28;20444;-68
2022/06/14 07:37:02;;;;;;;5.97;3.03;;;18.70;99.90;;;;;;5112817;28;20546;-67
2022/06/14 07:39:41;;;;;;;5.90;2.90;;;18.80;99.90;;;;;;5113152;28;20448;-66
2022/06/14 07:42:14;;;;;;;3.50;3.10;;;18.80;99.90;;;;;;5112937;28;20447;-67
2022/06/14 07:44:51;;;;;;;3.40;2.80;;;19.00;99.90;;;;;;5113673;28;20452;-67
2022/06/14 07:47:22;;;;;;;3.20;2.33;;;19.10;99.90;;;;;;5112981;28;20446;-67
2022/06/14 07:49:58;;;;;;;4.97;3.23;;;19.10;99.90;;;;;;5112215;28;20501;-67
2022/06/14 07:52:31;;;;;;;4.13;2.90;;;19.00;99.90;;;;;;5113310;28;20828;-67
2022/06/14 07:55:06;;;;;;;4.00;2.73;;;19.20;99.90;;;;;;5111967;28;20450;-67
2022/06/14 07:57:39;;;;;;;4.27;2.90;;;19.30;99.90;;;;;;5113165;28;20446;-67
2022/06/14 08:03:04;;;;;;;4.10;2.57;;;19.40;99.90;;;;;;5111797;28;20419;-67
2022/06/14 08:05:36;;;;;;;3.83;2.70;;;19.50;99.90;;;;;;5112692;28;20943;-68
2022/06/14 08:08:06;;;;;;;4.80;2.77;;;19.40;99.90;;;;;;5112393;28;20824;-67
2022/06/14 08:10:39;;;;;;;3.40;3.00;;;19.60;99.90;;;;;;5112488;28;20475;-67
2022/06/14 08:13:08;;;;;;;3.37;2.80;;;19.70;99.90;;;;;;5112323;28;20892;-67
2022/06/14 08:15:38;;;;;;;3.70;3.00;;;19.80;99.90;;;;;;5112693;28;20483;-68
2022/06/14 08:18:11;;;;;;;4.03;2.57;;;19.90;99.90;;;;;;5111828;28;20448;-68
2022/06/14 08:20:45;;;;;;;3.60;2.77;;;20.10;99.90;;;;;;5112209;28;20452;-67
2022/06/14 08:23:17;;;;;;;3.60;2.90;;;20.20;99.90;;;;;;5112600;28;20530;-68
2022/06/14 08:25:50;;;;;;;6.67;3.23;;;20.00;99.90;;;;;;5112472;28;20470;-68
2022/06/14 08:28:21;;;;;;;3.20;2.20;;;20.00;99.90;;;;;;5112560;28;20475;-68
2022/06/14 08:30:56;;;;;;;5.47;2.30;;;20.00;99.90;;;;;;5111433;28;20483;-68
2022/06/14 08:33:28;;;;;;;9.10;3.27;;;20.10;99.90;;;;;;5112463;28;20496;-68
2022/06/14 08:36:01;;;;;;;3.30;2.60;;;20.10;99.90;;;;;;5111958;28;20458;-68
2022/06/14 08:38:33;;;;;;;6.00;3.53;;;20.20;99.90;;;;;;5112451;28;20452;-68
2022/06/14 08:41:25;;;;;;;3.60;3.00;;;20.30;99.90;;;;;;5111714;28;20923;-67
2022/06/14 08:43:58;;;;;;;4.30;3.70;;;20.20;99.90;;;;;;5111606;28;20911;-68
2022/06/14 08:46:38;;;;;;;5.80;2.50;;;20.40;99.90;;;;;;5111854;28;20460;-66
2022/06/14 08:49:22;;;;;;;3.20;2.83;;;20.50;99.90;;;;;;5111415;28;20467;-68
2022/06/14 08:52:28;;;;;;;3.30;2.90;;;20.80;99.90;;;;;;5111400;28;20518;-69
2022/06/14 08:55:12;;;;;;;4.37;3.30;;;20.70;99.90;;;;;;5110960;28;20447;-68
2022/06/14 08:58:09;;;;;;;2.00;1.80;;;20.70;99.90;;;;;;5111820;28;20443;-68
2022/06/14 09:00:51;;;;;;;4.70;2.53;;;20.80;99.90;;;;;;5111695;28;20466;-66
2022/06/14 09:03:59;;;;;;;4.70;3.10;;;20.90;99.90;;;;;;5112062;28;20539;-67
2022/06/14 09:07:00;;;;;;;4.07;2.50;;;20.80;99.90;;;;;;5086105;28;20451;-67
2022/06/14 09:09:55;;;;;;;3.97;2.60;;;21.10;99.90;;;;;;5111675;28;20800;-67
2022/06/14 09:12:47;;;;;;;3.40;2.60;;;21.10;99.90;;;;;;5107722;28;20528;-67
2022/06/14 09:15:52;;;;;;;4.23;3.20;;;21.20;99.90;;;;;;5105814;28;20443;-67
2022/06/14 09:18:38;;;;;;;2.90;1.90;;;21.20;99.90;;;;;;5112135;28;20447;-67
2022/06/14 09:21:16;;;;;;;2.30;2.03;;;21.60;99.90;;;;;;5110250;28;20448;-67
2022/06/14 09:24:09;;;;;;;2.43;2.23;;;21.70;99.90;;;;;;5111492;28;20851;-67
2022/06/14 09:27:07;;;;;;;3.73;2.07;;;21.60;99.90;;;;;;5111401;28;20494;-68
2022/06/14 09:30:00;;;;;;;2.20;2.00;;;21.70;99.90;;;;;;5111050;28;20468;-67
2022/06/14 09:33:13;;;;;;;2.93;2.37;;;21.80;99.90;;;;;;5100150;28;20462;-67
2022/06/14 09:36:28;;;;;;;3.60;2.67;;;21.90;99.90;;;;;;5111809;28;20513;-67
2022/06/14 09:39:38;;;;;;;4.00;2.33;;;22.00;99.90;;;;;;5092379;28;20452;-65
2022/06/14 09:42:36;;;;;;;2.87;2.30;;;22.00;99.90;;;;;;5028358;28;20538;-68
2022/06/14 09:45:22;;;;;;;3.10;2.40;;;22.10;96.80;;;;;;5111015;28;20448;-67
2022/06/14 09:48:19;;;;;;;5.40;2.70;;;22.30;89.00;;;;;;5111184;28;20531;-67
2022/06/14 09:51:24;;;;;;;3.80;2.10;;;22.20;88.80;;;;;;5110503;28;20472;-70
2022/06/14 09:54:22;;;;;;;2.73;1.70;;;22.30;85.50;;;;;;5101291;28;20838;-67
2022/06/14 09:57:11;;;;;;;5.70;3.00;;;22.40;95.60;;;;;;5099301;28;20488;-67
2022/06/14 10:00:05;;;;;;;2.60;2.40;;;22.60;75.40;;;;;;5110689;28;20457;-67
2022/06/14 10:02:49;;;;;;;2.87;2.20;;;22.80;68.20;;;;;;5111433;28;20446;-68
2022/06/14 10:05:36;;;;;;;3.03;1.90;;;22.70;57.60;;;;;;5111196;28;20447;-68
2022/06/14 10:08:30;;;;;;;3.87;2.80;;;22.60;51.80;;;;;;5110905;28;20466;-67
2022/06/14 10:11:14;;;;;;;3.67;2.43;;;22.70;52.70;;;;;;5096536;28;20558;-67
2022/06/14 10:14:23;;;;;;;2.50;2.10;;;22.80;46.10;;;;;;5111934;28;20518;-65
2022/06/14 10:17:12;;;;;;;2.50;1.70;;;23.10;44.30;;;;;;5110690;28;20436;-67
2022/06/14 10:19:57;;;;;;;4.63;2.17;;;23.20;39.70;;;;;;5099983;28;20489;-66
2022/06/14 10:22:33;;;;;;;2.70;2.20;;;23.20;37.20;;;;;;5110916;28;20440;-67
2022/06/14 10:25:10;;;;;;;5.10;1.90;;;23.10;33.20;;;;;;5112123;28;20442;-67
2022/06/14 10:30:53;;;;;;;3.90;1.93;;;23.30;34.40;;;;;;5114123;28;20583;-67
2022/06/14 10:33:43;;;;;;;3.17;2.23;;;23.50;28.70;;;;;;5111454;28;20477;-67
2022/06/14 10:36:44;;;;;;;2.50;2.27;;;23.40;26.70;;;;;;5113945;27;20999;-66
2022/06/14 10:39:36;;;;;;;5.33;3.00;;;;;;;;;;5103649;28;20952;-67
2022/06/14 10:42:07;;;;;;;3.40;2.03;;;;;;;;;;5101440;28;20835;-68
2022/06/14 10:44:41;;;;;;;1.70;1.60;;;;;;;;;;5114736;28;20444;-67
2022/06/14 10:47:11;;;;;;;3.10;2.47;;;;;;;;;;5114162;28;20451;-67
2022/06/14 10:49:46;;;;;;;3.70;3.13;;;;;;;;;;5113738;28;21379;-67
2022/06/14 10:52:22;;;;;;;3.10;2.43;;;;;;;;;;5114779;28;20460;-67
2022/06/14 10:54:53;;;;;;;2.10;1.90;;;;;;;;;;5113736;28;20445;-67
2022/06/14 10:57:36;;;;;;;2.83;2.03;;;;;;;;;;5114031;28;20954;-67
2022/06/14 11:00:11;;;;;;;3.60;2.73;;;;;;;;;;5113484;28;20522;-67
2022/06/14 11:03:03;;;;;;;2.80;1.73;;;;;;;;;;5114249;28;20791;-66
2022/06/14 11:05:34;;;;;;;2.60;2.40;;;;;;;;;;5114262;28;20436;-66
2022/06/14 11:08:13;;;;;;;2.67;2.47;;;;;;;;;;5113306;28;20443;-66
2022/06/14 11:10:52;;;;;;;5.00;2.67;;;;;;;;;;5113261;28;20468;-66
2022/06/14 11:13:22;;;;;;;1.93;1.73;;;;;;;;;;5104570;28;20517;-68
2022/06/14 11:15:51;;;;;;;3.70;2.83;;;;;;;;;;5113565;28;20505;-67
2022/06/14 11:18:25;;;;;;;2.40;2.20;;;;;;;;;;5113875;28;20938;-68
2022/06/14 11:20:56;;;;;;;2.40;2.03;;;;;;;;;;5112636;28;20443;-68
2022/06/14 11:23:26;;;;;;;2.60;2.00;;;;;;;;;;5114008;28;20967;-68
2022/06/14 11:25:57;;;;;;;2.33;2.10;;;;;;;;;;5113701;28;20486;-68
2022/06/14 11:28:25;;;;;;;2.60;2.40;;;;;;;;;;5114233;28;20460;-68
2022/06/14 11:30:56;;;;;;;3.13;2.73;;;;;;;;;;5112783;28;20490;-65
2022/06/14 11:33:34;;;;;;;3.50;2.30;;;;;;;;;;5113485;28;20978;-66
2022/06/14 11:36:07;;;;;;;2.60;1.90;;;;;;;;;;5113147;28;20472;-66
2022/06/14 11:38:44;;;;;;;2.27;1.90;;;;;;;;;;5113604;28;20436;-66
2022/06/14 11:41:12;;;;;;;4.57;2.00;;;;;;;;;;5112489;28;20930;-66
2022/06/14 11:43:56;;;;;;;2.27;2.07;;;;;;;;;;5113441;28;20448;-67
2022/06/14 11:46:27;;;;;;;3.27;2.27;;;;;;;;;;5113478;28;20828;-67
2022/06/14 11:48:58;;;;;;;2.90;2.07;;;;;;;;;;5112987;28;20478;-67
2022/06/14 11:51:35;;;;;;;3.40;2.30;;;23.60;27.20;;;;;;5112585;28;20503;-66
2022/06/14 11:54:10;;;;;;;3.10;2.47;;;;;;;;;;5112532;28;20523;-66
2022/06/14 11:56:42;;;;;;;4.13;2.10;;;;;;;;;;5112850;28;20981;-66
2022/06/14 11:59:27;;;;;;;2.30;2.03;;;;;;;;;;5111902;28;20920;-67
2022/06/14 12:02:03;;;;;;;2.87;1.70;;;;;;;;;;5102109;28;20457;-67
2022/06/14 12:04:43;;;;;;;2.77;2.07;;;;;;;;;;5112934;28;20436;-66
2022/06/14 12:07:18;;;;;;;2.97;2.40;;;25.30;1.00;;;;;;5112406;28;20450;-67
2022/06/14 12:10:24;;;;;;;3.30;2.30;;;25.20;1.00;;;;;;5112586;28;20478;-67
2022/06/14 12:13:07;;;;;;;2.70;2.00;;;25.20;1.00;;;;;;5108346;28;20458;-67
2022/06/14 12:15:42;;;;;;;1.70;1.60;;;25.10;1.00;;;;;;5112751;28;20444;-66
2022/06/14 12:18:13;;;;;;;1.83;1.73;;;25.30;1.00;;;;;;5111925;28;20939;-67
2022/06/14 12:20:47;;;;;;;2.30;2.10;;;25.30;1.00;;;;;;5112232;28;20452;-66
2022/06/14 12:23:20;;;;;;;2.70;2.13;;;25.00;1.00;;;;;;5112439;28;20436;-66
2022/06/14 12:28:44;;;;;;;2.20;2.00;;;25.80;1.00;;;;;;5071877;28;20894;-67
2022/06/14 12:31:18;;;;;;;3.40;2.17;;;25.70;1.00;;;;;;5071563;28;20564;-67
2022/06/14 12:33:51;;;;;;;1.60;1.50;;;25.80;1.00;;;;;;5071837;28;20502;-71
2022/06/14 12:36:30;;;;;;;5.43;2.13;;;25.80;1.00;;;;;;5071642;28;20460;-68
2022/06/14 12:39:02;;;;;;;2.20;2.00;;;25.90;1.00;;;;;;5070924;28;20952;-68
2022/06/14 12:41:34;;;;;;;2.23;1.77;;;25.90;1.00;;;;;;5071209;28;20462;-68
2022/06/14 12:44:19;;;;;;;2.73;1.87;;;25.80;1.00;;;;;;5071378;28;20442;-67
2022/06/14 12:46:48;;;;;;;1.63;1.47;;;25.70;1.00;;;;;;5070771;28;20536;-71
2022/06/14 12:49:23;;;;;;;2.30;1.90;;;25.70;1.00;;;;;;5071279;28;20452;-68
2022/06/14 12:51:56;;;;;;;3.77;1.80;;;25.50;1.00;;;;;;5071116;28;20808;-68
2022/06/14 12:54:39;;;;;;;4.63;1.43;;;25.90;1.00;;;;;;5071328;28;20441;-68
2022/06/14 12:57:11;;;;;;;2.63;2.07;;;26.10;1.00;;;;;;5070494;28;21194;-67
2022/06/14 12:59:44;;;;;;;2.10;1.70;;;25.90;1.00;;;;;;5071189;28;20782;-66
2022/06/14 13:02:16;;;;;;;2.87;1.93;;;26.00;1.00;;;;;;5071557;28;20456;-67
2022/06/14 13:04:47;;;;;;;3.07;2.27;;;26.10;1.00;;;;;;5071597;28;20445;-67
2022/06/14 13:07:46;;;;;;;2.63;2.40;;;26.10;1.00;;;;;;5071661;28;20466;-68
2022/06/14 13:10:32;;;;;;;2.37;1.63;;;26.20;1.00;;;;;;5071072;28;20525;-68
2022/06/14 13:13:40;;;;;;;2.23;2.03;;;25.90;1.00;;;;;;5061382;28;20473;-68
2022/06/14 13:16:16;;;;;;;2.00;1.77;;;25.90;1.00;;;;;;5057773;28;20449;-68
2022/06/14 13:18:58;;;;;;;1.40;1.30;;;26.00;1.00;;;;;;5071615;28;20449;-67
2022/06/14 13:21:34;;;;;;;5.93;2.00;;;26.10;1.00;;;;;;5071004;28;20449;-67
2022/06/14 13:24:14;;;;;;;4.20;1.93;;;26.30;1.00;;;;;;5071442;28;20984;-67
2022/06/14 13:26:55;;;;;;;2.70;2.10;;;26.30;1.00;;;;;;5082463;28;20479;-68
2022/06/14 13:29:32;;;;;;;2.83;1.83;;;26.50;1.00;;;;;;5110929;28;20436;-67
2022/06/14 13:32:34;;;;;;;2.10;1.87;;;26.60;1.00;;;;;;5111067;28;20507;-68
2022/06/14 13:35:23;;;;;;;2.60;1.83;;;26.90;1.00;;;;;;5097294;28;21022;-68
2022/06/14 13:37:54;;;;;;;2.60;1.70;;;27.00;1.00;;;;;;5111111;28;20450;-68
2022/06/14 13:40:27;;;;;;;1.83;1.73;;;27.00;1.00;;;;;;5110597;28;20452;-68
2022/06/14 13:42:58;;;;;;;2.10;1.90;;;26.90;1.00;;;;;;5111365;28;20447;-67
2022/06/14 13:45:31;;;;;;;1.93;1.83;;;27.00;1.00;;;;;;5111360;28;20965;-68
2022/06/14 13:48:02;;;;;;;2.10;1.90;;;27.30;1.00;;;;;;5110848;28;20469;-68
2022/06/14 13:50:36;;;;;;;2.70;1.50;;;27.70;1.00;;;;;;5111005;28;20452;-67
2022/06/14 13:53:08;;;;;;;1.90;1.70;;;27.80;1.00;;;;;;5110906;28;20489;-66
2022/06/14 13:55:43;;;;;;;2.77;1.80;;;28.40;1.00;;;;;;5111066;28;20812;-68
2022/06/14 13:58:13;;;;;;;2.00;1.63;;;;;;;;;;5110721;28;20526;-67
2022/06/14 14:00:45;;;;;;;1.60;1.50;;;;;;;;;;5113875;28;20447;-67
2022/06/14 14:03:20;;;;;;;4.00;1.37;;;;;;;;;;5115740;28;20595;-67
2022/06/14 14:05:51;;;;;;;2.17;1.60;;;;;;;;;;5114867;28;20442;-68
2022/06/14 14:08:23;;;;;;;1.55;1.45;;;;;;;;;;5115632;28;20527;-68